Time;durP1;ratioP1;P1;durP2;ratioP2;P2;SDS_P1;SDS_P2;PMS_P1;PMS_P2;Temp;Humidity;BMP_temperature;BMP_pressure;BME280_temperature;BME280_humidity;BME280_pressure;Samples;Min_cycle;Max_cycle;Signal;HPM_P1;HPM_P2
2023/02/04 00:00:47;;;;;;;4.95;2.60;;;16.20;54.10;;;;;;5003622;28;20317;-70
2023/02/04 00:03:14;;;;;;;6.55;2.88;;;16.10;54.10;;;;;;5003310;28;20058;-69
2023/02/04 00:05:39;;;;;;;6.80;2.83;;;16.10;54.20;;;;;;5003441;28;20026;-71
2023/02/04 00:08:06;;;;;;;8.10;2.25;;;16.10;54.30;;;;;;5003423;28;20037;-71
2023/02/04 00:10:32;;;;;;;6.10;2.50;;;16.00;54.30;;;;;;5003480;28;20153;-70
2023/02/04 00:12:57;;;;;;;5.88;2.60;;;16.00;54.40;;;;;;5003355;28;20030;-70
2023/02/04 00:15:23;;;;;;;5.22;2.40;;;15.90;54.30;;;;;;5003322;28;20034;-69
2023/02/04 00:17:49;;;;;;;4.55;2.63;;;15.90;54.40;;;;;;5003234;28;20030;-70
2023/02/04 00:20:15;;;;;;;4.15;2.42;;;15.90;54.40;;;;;;5003223;28;20022;-70
2023/02/04 00:22:41;;;;;;;6.88;2.58;;;15.90;54.50;;;;;;5003140;28;20053;-71
2023/02/04 00:25:07;;;;;;;4.72;2.40;;;15.90;54.50;;;;;;5003074;28;20330;-70
2023/02/04 00:27:33;;;;;;;7.05;2.80;;;15.90;54.60;;;;;;5003089;28;20077;-71
2023/02/04 00:29:59;;;;;;;5.55;2.40;;;15.90;54.50;;;;;;5003027;28;20250;-71
2023/02/04 00:32:25;;;;;;;3.95;2.35;;;16.00;54.40;;;;;;5001662;28;20037;-70
2023/02/04 00:34:52;;;;;;;4.53;2.28;;;16.10;54.20;;;;;;5003016;28;20049;-72
2023/02/04 00:37:18;;;;;;;5.53;2.50;;;16.20;54.00;;;;;;5002948;28;20211;-72
2023/02/04 00:39:44;;;;;;;3.97;2.10;;;16.40;53.70;;;;;;5002905;28;20089;-70
2023/02/04 00:42:09;;;;;;;5.20;2.45;;;16.50;53.40;;;;;;5002750;28;20034;-70
2023/02/04 00:44:36;;;;;;;3.75;2.22;;;16.50;53.10;;;;;;5002682;28;20022;-71
2023/02/04 00:47:02;;;;;;;4.50;2.13;;;16.60;53.00;;;;;;5002626;28;20026;-70
2023/02/04 00:49:27;;;;;;;3.95;2.53;;;16.70;52.90;;;;;;5002683;28;20030;-70
2023/02/04 00:51:53;;;;;;;4.97;2.58;;;16.70;52.80;;;;;;5002601;28;20030;-70
2023/02/04 00:54:19;;;;;;;6.40;2.60;;;16.70;52.60;;;;;;5002509;28;20314;-71
2023/02/04 00:56:45;;;;;;;3.33;1.98;;;16.80;52.40;;;;;;5002597;28;20034;-71
2023/02/04 00:59:11;;;;;;;4.60;1.92;;;16.80;52.40;;;;;;5001651;28;20082;-70
2023/02/04 01:01:37;;;;;;;5.07;2.33;;;16.70;52.50;;;;;;5002466;28;20029;-70
2023/02/04 01:04:03;;;;;;;3.85;2.20;;;16.70;52.70;;;;;;5002267;28;20068;-69
2023/02/04 01:06:29;;;;;;;3.63;2.22;;;16.50;52.80;;;;;;5002239;28;20034;-70
2023/02/04 01:08:54;;;;;;;7.85;2.63;;;16.50;53.10;;;;;;5002278;28;20053;-70
2023/02/04 01:11:20;;;;;;;3.58;2.10;;;16.30;53.30;;;;;;5002213;28;20115;-70
2023/02/04 01:13:46;;;;;;;3.08;1.80;;;16.20;53.50;;;;;;5002123;28;20037;-70
2023/02/04 01:16:12;;;;;;;4.95;2.45;;;16.20;53.70;;;;;;5002137;28;20037;-69
2023/02/04 01:18:38;;;;;;;4.95;2.58;;;16.10;53.80;;;;;;5002096;28;20088;-70
2023/02/04 01:21:04;;;;;;;5.97;2.60;;;16.10;54.00;;;;;;5002063;28;20030;-70
2023/02/04 01:23:30;;;;;;;5.38;2.70;;;16.10;54.10;;;;;;5000630;28;20026;-69
2023/02/04 01:25:56;;;;;;;5.00;2.47;;;16.00;54.20;;;;;;5002022;28;20085;-70
2023/02/04 01:28:22;;;;;;;3.80;2.22;;;16.00;54.20;;;;;;5002039;28;20038;-70
2023/02/04 01:30:48;;;;;;;3.05;2.03;;;16.00;54.30;;;;;;5001902;28;20218;-71
2023/02/04 01:33:14;;;;;;;4.15;2.10;;;16.00;54.20;;;;;;5001743;28;20054;-70
2023/02/04 01:35:39;;;;;;;3.88;1.88;;;16.00;54.30;;;;;;5001724;28;20198;-69
2023/02/04 01:38:05;;;;;;;6.00;1.90;;;16.00;54.30;;;;;;5001794;28;20014;-70
2023/02/04 01:40:31;;;;;;;4.60;2.40;;;16.00;54.30;;;;;;5001762;28;20037;-72
2023/02/04 01:42:57;;;;;;;2.97;1.80;;;15.90;54.30;;;;;;5001640;28;20345;-70
2023/02/04 01:45:23;;;;;;;4.75;2.20;;;15.90;54.40;;;;;;5001530;28;20029;-70
2023/02/04 01:47:49;;;;;;;4.63;2.03;;;15.90;54.40;;;;;;5001546;28;20058;-71
2023/02/04 01:50:16;;;;;;;4.35;2.50;;;15.90;54.40;;;;;;5001504;28;20018;-72
2023/02/04 01:52:43;;;;;;;6.35;2.33;;;15.90;54.40;;;;;;5001439;28;20571;-70
2023/02/04 01:55:24;;;;;;;3.00;1.98;;;16.00;54.40;;;;;;5001301;28;20333;-70
2023/02/04 01:57:52;;;;;;;3.60;2.10;;;16.10;54.20;;;;;;5001345;28;20340;-70
2023/02/04 02:00:30;;;;;;;4.45;2.40;;;16.20;54.00;;;;;;5001220;28;20041;-71
2023/02/04 02:02:57;;;;;;;7.13;2.22;;;16.30;53.70;;;;;;5001092;28;20313;-70
2023/02/04 02:05:35;;;;;;;4.65;1.55;;;16.40;53.40;;;;;;5001114;28;20568;-70
2023/02/04 02:08:03;;;;;;;4.60;2.40;;;16.60;53.00;;;;;;5001140;28;20338;-71
2023/02/04 02:10:30;;;;;;;3.20;2.27;;;16.60;52.80;;;;;;5000992;28;20522;-71
2023/02/04 02:12:56;;;;;;;2.90;1.90;;;16.70;52.80;;;;;;5000945;28;20270;-70
2023/02/04 02:15:23;;;;;;;4.82;2.22;;;16.70;52.70;;;;;;5001050;28;20187;-70
2023/02/04 02:17:50;;;;;;;5.72;2.13;;;16.80;52.50;;;;;;5000993;28;20271;-71
2023/02/04 02:20:19;;;;;;;4.50;2.22;;;16.70;52.40;;;;;;5001049;28;20057;-71
2023/02/04 02:23:13;;;;;;;4.90;2.63;;;16.70;52.50;;;;;;5001090;28;20214;-71
2023/02/04 02:25:39;;;;;;;4.22;1.90;;;16.60;52.70;;;;;;5001015;28;20041;-72
2023/02/04 02:28:10;;;;;;;3.30;1.58;;;16.50;52.90;;;;;;5000893;28;20085;-71
2023/02/04 02:30:36;;;;;;;4.60;2.60;;;16.40;53.10;;;;;;5000871;28;20030;-71
2023/02/04 02:33:03;;;;;;;3.85;1.73;;;16.30;53.30;;;;;;5000651;28;20026;-71
2023/02/04 02:35:28;;;;;;;5.45;2.30;;;16.20;53.60;;;;;;5000712;28;20032;-72
2023/02/04 02:37:54;;;;;;;2.97;2.00;;;16.20;54.20;;;;;;4999363;28;20057;-70
2023/02/04 02:40:20;;;;;;;4.00;2.10;;;16.10;53.80;;;;;;5000721;28;20277;-71
2023/02/04 02:42:50;;;;;;;3.30;2.08;;;16.00;53.90;;;;;;5000638;28;20338;-70
2023/02/04 02:45:23;;;;;;;3.75;1.90;;;16.00;54.00;;;;;;5000685;28;20053;-72
2023/02/04 02:47:49;;;;;;;3.17;1.75;;;16.00;54.10;;;;;;5000731;28;20034;-70
2023/02/04 02:50:19;;;;;;;3.75;2.25;;;15.90;54.20;;;;;;5000812;28;20041;-71
2023/02/04 02:52:45;;;;;;;3.40;1.80;;;15.90;54.20;;;;;;5000654;28;20097;-70
2023/02/04 02:55:17;;;;;;;3.85;2.00;;;15.90;54.20;;;;;;5000467;28;20030;-70
2023/02/04 02:57:45;;;;;;;3.08;1.63;;;15.90;54.20;;;;;;5000606;28;20026;-70
2023/02/04 03:00:22;;;;;;;5.60;2.28;;;15.90;54.20;;;;;;5000611;28;20318;-70
2023/02/04 03:03:07;;;;;;;3.85;2.03;;;15.90;54.20;;;;;;5000459;28;20066;-70
2023/02/04 03:05:37;;;;;;;3.05;1.77;;;15.90;54.30;;;;;;5000810;28;20093;-70
2023/02/04 03:08:04;;;;;;;2.83;1.85;;;15.90;54.10;;;;;;5000703;28;20081;-70
2023/02/04 03:10:30;;;;;;;2.63;1.90;;;15.90;54.20;;;;;;5000645;28;20084;-70
2023/02/04 03:12:56;;;;;;;4.70;2.22;;;15.90;54.00;;;;;;5000513;28;20030;-72
2023/02/04 03:15:22;;;;;;;4.38;2.22;;;16.00;54.20;;;;;;5000583;28;20026;-70
2023/02/04 03:17:50;;;;;;;3.17;1.60;;;16.10;54.60;;;;;;5000440;28;20101;-70
2023/02/04 03:20:16;;;;;;;2.33;1.60;;;16.20;53.60;;;;;;5000457;28;20121;-71
2023/02/04 03:22:42;;;;;;;2.88;1.88;;;16.30;53.50;;;;;;5002205;28;20033;-70
2023/02/04 03:25:08;;;;;;;3.45;1.63;;;16.40;53.20;;;;;;5004194;28;20026;-70
2023/02/04 03:27:33;;;;;;;4.47;1.70;;;16.50;52.70;;;;;;5004148;28;20329;-70
2023/02/04 03:29:59;;;;;;;2.60;1.83;;;16.60;52.20;;;;;;5004115;28;20022;-71
2023/02/04 03:32:25;;;;;;;2.95;1.92;;;16.60;52.20;;;;;;5004062;28;20567;-70
2023/02/04 03:34:51;;;;;;;3.03;1.70;;;16.60;52.20;;;;;;5004004;28;20030;-71
2023/02/04 03:37:17;;;;;;;3.97;2.65;;;16.70;52.10;;;;;;5004136;28;20038;-70
2023/02/04 03:39:42;;;;;;;3.10;1.38;;;16.70;52.00;;;;;;5003959;28;20018;-71
2023/02/04 03:42:08;;;;;;;3.25;1.60;;;16.70;52.10;;;;;;5003843;28;20337;-71
2023/02/04 03:44:34;;;;;;;3.80;1.60;;;16.60;52.00;;;;;;5003861;28;20038;-70
2023/02/04 03:47:00;;;;;;;2.22;1.52;;;16.60;52.40;;;;;;5003805;28;20315;-70
2023/02/04 03:49:27;;;;;;;4.60;1.73;;;16.40;52.50;;;;;;5003834;28;20249;-71
2023/02/04 03:51:53;;;;;;;3.45;1.73;;;16.40;52.70;;;;;;5003780;28;20368;-70
2023/02/04 03:54:18;;;;;;;3.05;1.63;;;16.30;52.70;;;;;;5002235;28;20026;-70
2023/02/04 03:56:44;;;;;;;2.63;1.42;;;16.20;52.90;;;;;;5003640;28;20325;-70
2023/02/04 03:59:10;;;;;;;2.58;1.73;;;16.20;53.00;;;;;;5003512;28;20206;-71
2023/02/04 04:01:36;;;;;;;2.20;1.75;;;16.10;53.30;;;;;;5003555;28;20098;-71
2023/02/04 04:04:02;;;;;;;4.28;1.75;;;16.10;53.50;;;;;;5003349;28;20125;-71
2023/02/04 04:06:27;;;;;;;3.40;1.90;;;16.00;53.30;;;;;;5003402;28;20091;-71
2023/02/04 04:08:53;;;;;;;3.08;1.13;;;16.00;53.30;;;;;;5003362;28;20030;-70
2023/02/04 04:11:20;;;;;;;4.07;1.85;;;15.90;52.90;;;;;;5003338;28;20022;-71
2023/02/04 04:13:46;;;;;;;2.55;1.67;;;15.90;53.00;;;;;;5003322;28;20034;-69
2023/02/04 04:16:12;;;;;;;3.60;1.88;;;15.90;53.50;;;;;;5003416;28;20022;-71
2023/02/04 04:18:38;;;;;;;4.40;1.75;;;15.80;53.50;;;;;;5003293;28;20030;-70
2023/02/04 04:21:04;;;;;;;3.38;1.77;;;15.80;53.60;;;;;;5003168;28;20241;-70
2023/02/04 04:23:30;;;;;;;4.07;1.55;;;15.80;53.90;;;;;;5003111;28;20388;-70
2023/02/04 04:25:55;;;;;;;4.20;1.80;;;15.80;53.40;;;;;;5003030;28;20042;-70
2023/02/04 04:28:21;;;;;;;3.17;1.95;;;15.80;53.60;;;;;;5002982;28;20195;-71
2023/02/04 04:30:47;;;;;;;2.30;1.40;;;15.80;53.80;;;;;;5003023;28;20038;-71
2023/02/04 04:33:13;;;;;;;3.15;1.80;;;15.90;53.20;;;;;;5002195;28;20030;-72
2023/02/04 04:35:39;;;;;;;2.72;1.50;;;16.10;53.40;;;;;;5002573;28;20015;-70
2023/02/04 04:38:05;;;;;;;2.67;1.73;;;16.20;53.30;;;;;;5003032;28;20084;-71
2023/02/04 04:40:31;;;;;;;2.60;1.58;;;16.30;52.90;;;;;;5002849;28;20029;-71
2023/02/04 04:42:56;;;;;;;2.17;1.38;;;16.50;52.60;;;;;;5002757;28;20027;-71
2023/02/04 04:45:22;;;;;;;4.68;1.60;;;16.50;52.50;;;;;;5002703;28;20026;-71
2023/02/04 04:47:48;;;;;;;2.95;1.58;;;16.60;52.30;;;;;;5002676;28;20034;-71
2023/02/04 04:50:14;;;;;;;7.25;1.67;;;16.60;52.30;;;;;;5002681;28;20050;-71
2023/02/04 04:52:40;;;;;;;7.15;2.33;;;16.60;52.00;;;;;;5002591;28;20026;-69
2023/02/04 04:55:07;;;;;;;2.30;1.40;;;16.60;52.60;;;;;;5002483;28;20076;-70
2023/02/04 04:57:33;;;;;;;4.32;1.92;;;16.60;52.10;;;;;;5002523;28;20086;-70
2023/02/04 04:59:59;;;;;;;3.42;1.60;;;16.50;52.20;;;;;;5002593;28;20026;-70
2023/02/04 05:02:25;;;;;;;3.50;1.60;;;16.40;52.20;;;;;;5002528;28;20049;-69
2023/02/04 05:04:50;;;;;;;1.58;1.30;;;16.30;52.60;;;;;;5002447;28;20356;-70
2023/02/04 05:07:16;;;;;;;2.72;1.60;;;16.30;53.30;;;;;;5002290;28;20274;-71
2023/02/04 05:09:42;;;;;;;3.80;1.50;;;16.20;53.00;;;;;;5002283;28;20026;-70
2023/02/04 05:12:08;;;;;;;3.05;1.67;;;16.10;52.40;;;;;;5002275;28;20034;-71
2023/02/04 05:14:34;;;;;;;2.83;1.80;;;16.10;52.90;;;;;;5002130;28;20034;-71
2023/02/04 05:16:59;;;;;;;2.85;1.40;;;16.00;53.30;;;;;;5002242;28;20041;-72
2023/02/04 05:19:25;;;;;;;2.22;1.40;;;16.00;53.30;;;;;;5002184;28;20026;-69
2023/02/04 05:21:51;;;;;;;2.03;1.55;;;15.90;53.40;;;;;;5002043;28;20065;-70
2023/02/04 05:24:17;;;;;;;2.22;1.73;;;15.90;53.40;;;;;;5002046;28;20026;-71
2023/02/04 05:26:43;;;;;;;3.85;1.98;;;15.90;53.00;;;;;;5001870;28;20102;-70
2023/02/04 05:29:09;;;;;;;2.30;1.50;;;15.80;53.40;;;;;;5001866;28;20073;-71
2023/02/04 05:31:35;;;;;;;1.88;1.30;;;15.80;53.50;;;;;;5001782;28;20226;-70
2023/02/04 05:34:01;;;;;;;2.75;1.42;;;15.70;53.50;;;;;;5001672;28;20041;-70
2023/02/04 05:36:27;;;;;;;1.67;1.30;;;15.70;53.80;;;;;;5001657;28;20026;-70
2023/02/04 05:38:52;;;;;;;3.55;1.60;;;15.80;53.70;;;;;;5001587;28;20027;-70
2023/02/04 05:41:18;;;;;;;2.33;1.25;;;15.90;53.90;;;;;;5001603;28;20218;-72
2023/02/04 05:43:44;;;;;;;3.83;1.45;;;16.00;54.00;;;;;;5001558;28;20030;-70
2023/02/04 05:46:10;;;;;;;3.63;1.45;;;16.10;53.60;;;;;;5001145;28;20270;-70
2023/02/04 05:48:36;;;;;;;1.65;1.30;;;16.20;53.50;;;;;;5001555;28;20101;-71
2023/02/04 05:51:01;;;;;;;2.03;1.27;;;16.30;52.70;;;;;;5001418;28;20022;-71
2023/02/04 05:53:27;;;;;;;2.08;1.25;;;16.50;52.80;;;;;;5001250;28;20258;-70
2023/02/04 05:55:53;;;;;;;2.25;1.52;;;16.50;52.40;;;;;;4999988;28;20045;-71
2023/02/04 05:58:19;;;;;;;2.30;1.30;;;16.60;52.40;;;;;;5001455;28;20026;-71
2023/02/04 06:00:45;;;;;;;2.47;1.25;;;16.60;52.30;;;;;;5001424;28;20084;-71
2023/02/04 06:03:12;;;;;;;1.60;1.10;;;16.60;52.10;;;;;;5001170;28;20074;-70
2023/02/04 06:05:37;;;;;;;1.60;1.13;;;16.70;52.10;;;;;;5001192;28;20090;-71
2023/02/04 06:08:03;;;;;;;3.53;1.42;;;16.60;52.20;;;;;;5001150;28;20033;-71
2023/02/04 06:10:29;;;;;;;2.90;1.20;;;16.60;52.40;;;;;;5001061;28;20054;-71
2023/02/04 06:12:55;;;;;;;2.30;1.20;;;16.50;52.30;;;;;;5000998;28;20342;-71
2023/02/04 06:15:21;;;;;;;2.17;1.17;;;16.40;52.30;;;;;;5001058;28;20034;-71
2023/02/04 06:17:47;;;;;;;2.15;1.17;;;16.30;53.00;;;;;;5001259;28;20018;-69
2023/02/04 06:20:13;;;;;;;2.35;1.60;;;16.20;53.10;;;;;;5000985;28;20022;-71
2023/02/04 06:22:39;;;;;;;1.48;1.10;;;16.20;53.30;;;;;;5000870;28;20045;-71
2023/02/04 06:25:06;;;;;;;2.83;1.48;;;16.10;53.30;;;;;;5000900;28;20034;-71
2023/02/04 06:27:32;;;;;;;2.00;1.30;;;16.10;53.40;;;;;;5000825;28;20041;-71
2023/02/04 06:29:57;;;;;;;2.58;1.20;;;16.00;53.40;;;;;;5000929;28;20033;-71
2023/02/04 06:32:23;;;;;;;3.33;1.33;;;16.00;53.50;;;;;;4999705;28;20030;-71
2023/02/04 06:34:49;;;;;;;2.15;1.55;;;16.00;53.70;;;;;;5000848;28;20085;-71
2023/02/04 06:37:16;;;;;;;1.67;1.25;;;15.90;53.50;;;;;;5000786;28;20109;-71
2023/02/04 06:39:42;;;;;;;2.13;1.10;;;15.90;53.70;;;;;;5000828;28;20065;-70
2023/02/04 06:42:08;;;;;;;2.75;1.20;;;15.90;53.50;;;;;;5000878;28;20057;-70
2023/02/04 06:44:34;;;;;;;1.63;0.90;;;15.90;53.60;;;;;;5000830;28;20050;-71
2023/02/04 06:47:00;;;;;;;1.77;1.30;;;15.80;53.70;;;;;;5000938;28;20325;-70
2023/02/04 06:49:26;;;;;;;2.67;1.70;;;15.80;53.80;;;;;;5000895;28;20073;-70
2023/02/04 06:51:52;;;;;;;1.48;1.02;;;15.90;53.80;;;;;;5000712;28;20027;-70
2023/02/04 06:54:17;;;;;;;2.28;1.42;;;16.00;53.70;;;;;;5000593;28;20092;-70
2023/02/04 06:56:43;;;;;;;1.45;1.05;;;16.10;53.40;;;;;;5000871;28;20236;-71
2023/02/04 06:59:10;;;;;;;2.17;1.23;;;16.20;53.20;;;;;;5004848;28;20368;-70
2023/02/04 07:01:35;;;;;;;2.63;1.40;;;16.30;52.50;;;;;;5004835;28;20038;-71
2023/02/04 07:04:01;;;;;;;2.50;1.30;;;16.50;52.50;;;;;;5004525;28;20117;-70
2023/02/04 07:06:27;;;;;;;2.78;1.30;;;16.60;52.10;;;;;;5004544;28;20064;-71
2023/02/04 07:08:53;;;;;;;1.55;1.15;;;16.60;52.00;;;;;;5004478;28;20038;-70
2023/02/04 07:11:19;;;;;;;1.70;0.90;;;16.70;51.40;;;;;;5004388;28;20041;-70
2023/02/04 07:13:45;;;;;;;2.42;1.50;;;16.60;51.60;;;;;;5004334;28;20021;-70
2023/02/04 07:16:11;;;;;;;1.88;1.33;;;16.60;51.60;;;;;;5004372;28;20026;-71
2023/02/04 07:18:37;;;;;;;1.77;1.13;;;16.50;51.50;;;;;;5004393;28;20065;-71
2023/02/04 07:21:03;;;;;;;3.38;1.30;;;16.40;52.00;;;;;;5004354;28;20025;-71
2023/02/04 07:23:29;;;;;;;2.33;1.40;;;16.40;52.30;;;;;;5004281;28;20026;-71
2023/02/04 07:25:56;;;;;;;2.80;1.50;;;16.30;51.90;;;;;;5004295;28;20093;-71
2023/02/04 07:28:22;;;;;;;2.05;1.25;;;16.30;52.00;;;;;;5004206;28;20030;-70
2023/02/04 07:30:48;;;;;;;1.80;1.08;;;16.20;52.80;;;;;;5004164;28;20234;-71
2023/02/04 07:33:13;;;;;;;1.85;1.42;;;16.20;52.40;;;;;;5003907;28;20032;-70
2023/02/04 07:35:39;;;;;;;2.08;1.17;;;16.10;52.70;;;;;;5003987;28;20033;-71
2023/02/04 07:38:05;;;;;;;3.15;1.23;;;16.10;52.80;;;;;;5003898;28;20063;-70
2023/02/04 07:40:31;;;;;;;1.55;1.17;;;16.10;52.70;;;;;;5003936;28;20116;-71
2023/02/04 07:42:57;;;;;;;2.30;1.00;;;16.00;52.50;;;;;;5003896;28;20073;-71
2023/02/04 07:45:23;;;;;;;1.58;1.05;;;16.00;52.30;;;;;;5003821;28;20022;-71
2023/02/04 07:47:49;;;;;;;1.23;1.10;;;16.00;53.10;;;;;;5003772;28;20073;-71
2023/02/04 07:50:15;;;;;;;1.30;0.90;;;15.90;52.50;;;;;;5003781;28;20425;-71
2023/02/04 07:52:41;;;;;;;1.75;0.98;;;15.90;52.80;;;;;;5003666;28;20090;-71
2023/02/04 07:55:08;;;;;;;2.22;1.10;;;15.90;53.10;;;;;;5003830;28;20038;-71
2023/02/04 07:57:34;;;;;;;1.58;1.13;;;15.90;53.20;;;;;;5003724;28;20249;-70
2023/02/04 07:59:59;;;;;;;1.92;1.33;;;15.90;53.40;;;;;;5003498;28;20018;-71
2023/02/04 08:02:26;;;;;;;1.38;1.02;;;16.00;52.90;;;;;;5003438;28;20050;-71
2023/02/04 08:04:51;;;;;;;1.67;1.20;;;16.10;53.00;;;;;;5003527;28;20085;-71
2023/02/04 08:07:17;;;;;;;1.65;1.30;;;16.30;52.70;;;;;;5003358;28;20030;-71
2023/02/04 08:09:43;;;;;;;2.03;1.25;;;16.40;52.20;;;;;;5003136;28;20034;-71
2023/02/04 08:12:09;;;;;;;1.75;1.10;;;16.50;52.10;;;;;;5003414;28;20022;-70
2023/02/04 08:14:36;;;;;;;2.22;1.50;;;16.50;51.90;;;;;;5003340;28;20029;-70
2023/02/04 08:17:02;;;;;;;3.05;1.50;;;16.60;51.40;;;;;;5003295;28;20029;-70
2023/02/04 08:19:28;;;;;;;3.53;1.35;;;16.60;51.50;;;;;;5003205;28;20033;-71
2023/02/04 08:21:53;;;;;;;2.10;1.35;;;16.60;51.30;;;;;;5003246;28;20018;-71
2023/02/04 08:24:19;;;;;;;1.70;1.38;;;16.60;51.40;;;;;;5003118;28;20026;-72
2023/02/04 08:26:45;;;;;;;2.33;1.00;;;16.70;51.40;;;;;;5003177;28;20417;-71
2023/02/04 08:29:11;;;;;;;1.75;1.10;;;16.70;51.40;;;;;;5003067;28;20100;-71
2023/02/04 08:31:37;;;;;;;2.05;1.42;;;16.60;51.40;;;;;;5003015;28;20037;-71
2023/02/04 08:34:05;;;;;;;1.95;1.27;;;16.60;51.50;;;;;;5002897;28;20038;-71
2023/02/04 08:36:31;;;;;;;2.22;1.38;;;16.50;51.50;;;;;;5003075;28;20217;-71
2023/02/04 08:38:57;;;;;;;2.40;1.27;;;16.50;51.60;;;;;;5003152;28;20026;-70
2023/02/04 08:41:23;;;;;;;2.15;1.27;;;16.40;52.20;;;;;;5003034;28;20032;-71
2023/02/04 08:43:49;;;;;;;2.03;1.25;;;16.30;52.30;;;;;;5002763;28;20038;-70
2023/02/04 08:46:15;;;;;;;1.17;0.80;;;16.20;52.50;;;;;;5002836;28;20053;-70
2023/02/04 08:48:41;;;;;;;1.42;0.82;;;16.20;52.00;;;;;;5002777;28;20321;-71
2023/02/04 08:51:07;;;;;;;2.20;1.38;;;16.20;52.50;;;;;;5002732;28;20045;-70
2023/02/04 08:53:32;;;;;;;1.73;1.13;;;16.20;52.80;;;;;;5002568;28;20038;-70
2023/02/04 08:55:58;;;;;;;1.13;0.95;;;16.10;52.80;;;;;;5002777;28;20069;-71
2023/02/04 08:58:24;;;;;;;2.47;1.40;;;16.10;52.90;;;;;;5002597;28;20034;-70
2023/02/04 09:00:50;;;;;;;2.28;1.20;;;16.10;52.90;;;;;;5002587;28;20302;-70
2023/02/04 09:03:16;;;;;;;1.50;0.90;;;16.10;52.90;;;;;;5002287;28;20050;-70
2023/02/04 09:05:41;;;;;;;2.17;1.25;;;16.10;52.90;;;;;;5002371;28;20253;-70
2023/02/04 09:08:07;;;;;;;1.58;1.20;;;16.10;53.10;;;;;;5002379;28;20037;-70
2023/02/04 09:10:33;;;;;;;1.88;1.15;;;16.10;52.70;;;;;;5002301;28;20250;-71
2023/02/04 09:12:59;;;;;;;1.95;1.05;;;16.10;52.70;;;;;;5002162;28;20034;-71
2023/02/04 09:15:25;;;;;;;1.55;0.90;;;16.10;52.90;;;;;;5000856;28;20026;-71
2023/02/04 09:18:00;;;;;;;2.20;1.20;;;16.10;53.00;;;;;;5002108;28;20445;-71
2023/02/04 09:20:27;;;;;;;2.05;0.93;;;16.10;52.10;;;;;;5001394;28;20317;-70
2023/02/04 09:22:53;;;;;;;1.70;1.17;;;16.10;52.80;;;;;;5001981;28;20389;-71
2023/02/04 09:25:19;;;;;;;0.95;0.90;;;16.10;53.00;;;;;;5001881;28;20030;-70
2023/02/04 09:27:45;;;;;;;1.80;1.08;;;16.10;53.10;;;;;;5001905;28;20041;-70
2023/02/04 09:30:11;;;;;;;1.80;1.00;;;16.20;53.20;;;;;;5001861;28;20322;-70
2023/02/04 09:32:37;;;;;;;2.35;1.10;;;16.20;53.20;;;;;;5001798;28;20241;-72
2023/02/04 09:35:03;;;;;;;2.25;1.10;;;16.20;52.90;;;;;;5001737;28;20030;-70
2023/02/04 09:37:29;;;;;;;4.07;1.23;;;16.20;52.00;;;;;;5001781;28;20037;-71
2023/02/04 09:39:55;;;;;;;2.53;1.60;;;16.20;52.90;;;;;;5001837;28;20026;-71
2023/02/04 09:42:24;;;;;;;1.77;1.10;;;16.20;52.70;;;;;;5001729;28;20058;-71
2023/02/04 09:44:50;;;;;;;1.48;1.10;;;16.20;52.50;;;;;;5001601;28;20269;-71
2023/02/04 09:47:20;;;;;;;3.47;1.40;;;16.20;52.10;;;;;;5001531;28;20062;-71
2023/02/04 09:49:46;;;;;;;1.65;1.00;;;16.30;52.50;;;;;;5001586;28;20033;-71
2023/02/04 09:52:15;;;;;;;1.00;0.85;;;16.30;52.60;;;;;;5001563;28;20014;-71
2023/02/04 09:54:41;;;;;;;1.63;1.05;;;16.30;52.40;;;;;;5001312;28;20211;-71
2023/02/04 09:57:18;;;;;;;1.15;0.98;;;16.30;52.50;;;;;;5001356;28;20010;-71
2023/02/04 09:59:45;;;;;;;1.55;1.00;;;16.30;52.50;;;;;;5001317;28;20049;-72
2023/02/04 10:02:28;;;;;;;1.45;0.95;;;16.30;52.20;;;;;;5001095;28;20121;-71
2023/02/04 10:04:56;;;;;;;1.80;1.30;;;16.30;52.50;;;;;;5001297;28;20037;-71
2023/02/04 10:07:25;;;;;;;1.60;1.15;;;16.40;52.50;;;;;;5001241;28;20026;-70
2023/02/04 10:09:53;;;;;;;1.15;0.95;;;16.50;52.00;;;;;;5001233;28;20193;-71
2023/02/04 10:12:19;;;;;;;2.25;1.08;;;16.60;51.70;;;;;;5001299;28;20026;-71
2023/02/04 10:14:45;;;;;;;3.28;1.42;;;16.60;51.30;;;;;;5001208;28;20029;-70
2023/02/04 10:17:15;;;;;;;1.35;1.02;;;16.70;51.50;;;;;;5001219;28;20034;-72
2023/02/04 10:19:41;;;;;;;1.38;0.93;;;16.70;51.40;;;;;;5001185;28;20022;-72
2023/02/04 10:22:18;;;;;;;1.20;0.70;;;16.70;51.40;;;;;;5001080;28;20186;-71
2023/02/04 10:24:44;;;;;;;2.70;1.10;;;16.80;51.40;;;;;;5001337;28;20026;-70
2023/02/04 10:27:14;;;;;;;1.48;1.02;;;16.70;51.30;;;;;;5001179;28;20041;-71
2023/02/04 10:29:41;;;;;;;1.65;0.82;;;16.70;51.40;;;;;;5001079;28;20081;-71
2023/02/04 10:32:30;;;;;;;1.10;0.80;;;16.70;51.20;;;;;;5000937;28;20089;-71
2023/02/04 10:34:58;;;;;;;1.30;1.10;;;16.70;51.20;;;;;;5000874;28;20363;-72
2023/02/04 10:37:24;;;;;;;1.50;1.08;;;16.60;51.50;;;;;;5000915;28;20317;-71
2023/02/04 10:39:50;;;;;;;1.25;1.05;;;16.60;51.50;;;;;;5000768;28;20065;-71
2023/02/04 10:42:48;;;;;;;0.75;0.70;;;16.60;51.60;;;;;;5000803;28;20188;-70
2023/02/04 10:46:04;;;;;;;1.75;1.13;;;16.50;52.40;;;;;;5000616;28;20038;-70
2023/02/04 10:48:39;;;;;;;0.80;0.75;;;16.40;51.20;;;;;;4997755;28;20058;-71
2023/02/04 10:51:05;;;;;;;1.95;1.23;;;16.30;52.10;;;;;;5000785;28;20034;-71
2023/02/04 10:56:19;;;;;;;0.80;0.80;;;16.30;51.80;;;;;;5000696;28;20034;-72
2023/02/04 10:58:45;;;;;;;2.35;0.85;;;16.20;52.00;;;;;;4999452;28;20033;-71
2023/02/04 11:01:13;;;;;;;1.65;1.00;;;16.20;52.50;;;;;;5000779;28;20666;-70
2023/02/04 11:03:39;;;;;;;1.17;1.00;;;16.20;52.50;;;;;;5000507;28;20105;-72
2023/02/04 11:06:16;;;;;;;1.30;1.02;;;16.20;52.10;;;;;;5000588;28;20030;-70
2023/02/04 11:08:42;;;;;;;1.83;1.15;;;16.20;52.10;;;;;;5000590;28;20057;-69
2023/02/04 11:11:25;;;;;;;1.25;0.73;;;16.20;52.50;;;;;;4999186;28;20218;-69
2023/02/04 11:13:50;;;;;;;1.10;1.00;;;16.20;52.60;;;;;;5000334;28;20274;-70
2023/02/04 11:16:16;;;;;;;1.58;0.85;;;16.20;52.50;;;;;;5000403;28;20037;-72
2023/02/04 11:18:46;;;;;;;1.10;0.85;;;16.20;52.60;;;;;;5000512;28;20322;-71
2023/02/04 11:21:22;;;;;;;1.90;0.90;;;16.20;52.50;;;;;;5000348;28;20027;-70
2023/02/04 11:23:48;;;;;;;0.90;0.80;;;16.20;52.10;;;;;;5000346;28;20334;-70
2023/02/04 11:26:21;;;;;;;1.10;0.80;;;16.20;52.40;;;;;;5000382;28;20052;-70
2023/02/04 11:29:08;;;;;;;1.27;0.98;;;16.20;52.50;;;;;;5000364;28;20033;-71
2023/02/04 11:31:34;;;;;;;2.45;0.90;;;16.20;52.20;;;;;;5000326;28;20018;-70
2023/02/04 11:34:14;;;;;;;1.05;0.98;;;16.30;52.40;;;;;;5000306;28;20094;-70
2023/02/04 11:37:01;;;;;;;1.52;0.93;;;16.40;52.00;;;;;;5000527;28;20073;-71
2023/02/04 11:39:45;;;;;;;1.77;0.93;;;16.50;51.00;;;;;;5000374;28;20022;-71
2023/02/04 11:42:19;;;;;;;2.10;1.00;;;16.60;51.80;;;;;;5000162;28;20022;-71
2023/02/04 11:45:11;;;;;;;1.52;1.20;;;16.70;51.30;;;;;;5003695;28;20037;-72
2023/02/04 11:47:37;;;;;;;2.08;1.10;;;16.70;51.10;;;;;;5004004;28;20033;-71
2023/02/04 11:50:25;;;;;;;1.65;0.95;;;16.70;51.00;;;;;;5003855;28;20049;-72
2023/02/04 11:52:53;;;;;;;0.90;0.63;;;16.70;51.10;;;;;;5003751;28;20054;-71
2023/02/04 11:55:19;;;;;;;1.42;0.95;;;16.80;51.20;;;;;;5003758;28;20045;-70
2023/02/04 11:57:50;;;;;;;1.08;0.88;;;16.70;51.20;;;;;;5003735;28;20045;-70
2023/02/04 12:00:32;;;;;;;2.65;1.45;;;16.70;51.30;;;;;;5003744;28;20049;-71
2023/02/04 12:03:10;;;;;;;1.10;0.73;;;16.60;51.30;;;;;;5003169;28;20058;-71
2023/02/04 12:05:40;;;;;;;1.40;0.97;;;16.60;51.10;;;;;;5003534;28;20026;-71
2023/02/04 12:08:25;;;;;;;0.88;0.70;;;16.60;50.70;;;;;;5003383;28;20441;-70
2023/02/04 12:11:06;;;;;;;1.48;0.82;;;16.70;51.20;;;;;;5003495;28;20033;-69
2023/02/04 12:13:32;;;;;;;1.08;0.93;;;16.60;50.60;;;;;;5003441;28;20029;-70
2023/02/04 12:16:00;;;;;;;1.02;0.90;;;16.60;50.90;;;;;;5003408;28;20026;-71
2023/02/04 12:18:28;;;;;;;0.98;0.88;;;16.60;51.40;;;;;;5002209;28;20209;-71
2023/02/04 12:20:56;;;;;;;1.33;0.93;;;16.60;51.50;;;;;;5003408;28;20018;-70
2023/02/04 12:23:23;;;;;;;0.80;0.77;;;16.60;51.50;;;;;;5003472;28;20037;-70
2023/02/04 12:25:49;;;;;;;1.70;1.02;;;16.50;51.50;;;;;;5001981;28;20345;-72
2023/02/04 12:28:15;;;;;;;0.75;0.60;;;16.50;51.40;;;;;;5003310;28;20057;-70
2023/02/04 12:30:41;;;;;;;1.95;1.10;;;16.50;51.50;;;;;;5003172;28;20565;-70
2023/02/04 12:33:07;;;;;;;1.20;1.10;;;16.50;51.30;;;;;;5003043;28;20036;-70
2023/02/04 12:35:33;;;;;;;0.70;0.68;;;16.50;51.70;;;;;;5003087;28;20257;-69
2023/02/04 12:38:00;;;;;;;1.05;0.90;;;16.50;51.10;;;;;;5003035;28;20349;-71
2023/02/04 12:40:26;;;;;;;1.05;0.80;;;16.50;51.70;;;;;;5002951;28;20085;-70
2023/02/04 12:42:52;;;;;;;1.50;0.70;;;16.50;51.40;;;;;;5002937;28;20031;-70
2023/02/04 12:45:18;;;;;;;0.82;0.80;;;16.50;51.00;;;;;;5002877;28;20030;-70
2023/02/04 12:47:44;;;;;;;1.65;1.10;;;16.50;51.20;;;;;;5002719;28;20030;-71
2023/02/04 12:50:12;;;;;;;1.48;1.13;;;16.50;51.10;;;;;;5002803;28;20093;-71
2023/02/04 12:52:38;;;;;;;0.90;0.77;;;16.50;50.60;;;;;;5002722;28;20026;-70